sensor_id;sensor_type;location;lat;lon;timestamp;P1;durP1;ratioP1;P2;durP2;ratioP2
82255;SDS011;74246;42.044;-91.642;2024-03-23T00:52:58;9.35;;;8.05;;
82255;SDS011;74246;42.044;-91.642;2024-03-23T00:54:05;8.75;;;7.85;;
82255;SDS011;74246;42.044;-91.642;2024-03-23T00:54:37;9.45;;;8.55;;
82255;SDS011;74246;42.044;-91.642;2024-03-23T00:55:09;9.35;;;8.05;;
82255;SDS011;74246;42.044;-91.642;2024-03-23T00:55:41;8.85;;;7.95;;
82255;SDS011;74246;42.044;-91.642;2024-03-23T00:56:13;8.25;;;7.43;;
82255;SDS011;74246;42.044;-91.642;2024-03-23T00:56:51;8.32;;;7.53;;
82255;SDS011;74246;42.044;-91.642;2024-03-23T00:57:24;9.15;;;8.35;;
82255;SDS011;74246;42.044;-91.642;2024-03-23T00:57:56;9.35;;;8.55;;
82255;SDS011;74246;42.044;-91.642;2024-03-23T00:58:28;8.60;;;7.70;;
82255;SDS011;74246;42.044;-91.642;2024-03-23T00:59:00;8.82;;;7.78;;
82255;SDS011;74246;42.044;-91.642;2024-03-23T00:59:32;8.90;;;8.00;;
82255;SDS011;74246;42.044;-91.642;2024-03-23T01:00:04;8.90;;;8.02;;
82255;SDS011;74246;42.044;-91.642;2024-03-23T01:00:38;8.45;;;7.65;;
82255;SDS011;74246;42.044;-91.642;2024-03-23T01:01:10;9.25;;;8.20;;
82255;SDS011;74246;42.044;-91.642;2024-03-23T01:01:42;9.70;;;8.13;;
82255;SDS011;74246;42.044;-91.642;2024-03-23T01:02:13;8.95;;;8.05;;
82255;SDS011;74246;42.044;-91.642;2024-03-23T01:02:45;8.73;;;7.93;;
82255;SDS011;74246;42.044;-91.642;2024-03-23T01:03:17;9.18;;;7.55;;
82255;SDS011;74246;42.044;-91.642;2024-03-23T01:03:49;9.13;;;8.23;;
82255;SDS011;74246;42.044;-91.642;2024-03-23T01:04:21;8.70;;;7.78;;
82255;SDS011;74246;42.044;-91.642;2024-03-23T01:04:53;8.55;;;7.68;;
82255;SDS011;74246;42.044;-91.642;2024-03-23T01:05:25;8.68;;;7.88;;
82255;SDS011;74246;42.044;-91.642;2024-03-23T01:06:01;8.02;;;7.22;;
82255;SDS011;74246;42.044;-91.642;2024-03-23T01:06:36;8.32;;;7.53;;
82255;SDS011;74246;42.044;-91.642;2024-03-23T01:07:08;8.40;;;7.60;;
82255;SDS011;74246;42.044;-91.642;2024-03-23T01:07:40;9.98;;;9.02;;
82255;SDS011;74246;42.044;-91.642;2024-03-23T01:08:12;9.00;;;8.10;;
82255;SDS011;74246;42.044;-91.642;2024-03-23T01:08:43;7.82;;;6.97;;
82255;SDS011;74246;42.044;-91.642;2024-03-23T01:09:15;9.95;;;8.70;;
82255;SDS011;74246;42.044;-91.642;2024-03-23T01:09:47;9.15;;;8.35;;
82255;SDS011;74246;42.044;-91.642;2024-03-23T01:10:19;9.05;;;8.18;;
82255;SDS011;74246;42.044;-91.642;2024-03-23T01:10:55;9.35;;;8.45;;
82255;SDS011;74246;42.044;-91.642;2024-03-23T01:11:28;9.48;;;8.57;;
82255;SDS011;74246;42.044;-91.642;2024-03-23T01:12:00;8.80;;;8.00;;
82255;SDS011;74246;42.044;-91.642;2024-03-23T01:12:32;9.13;;;7.72;;
82255;SDS011;74246;42.044;-91.642;2024-03-23T01:13:04;9.10;;;8.20;;
82255;SDS011;74246;42.044;-91.642;2024-03-23T01:13:36;9.02;;;7.97;;
82255;SDS011;74246;42.044;-91.642;2024-03-23T01:14:08;10.15;;;9.20;;
82255;SDS011;74246;42.044;-91.642;2024-03-23T01:14:40;9.63;;;8.73;;
82255;SDS011;74246;42.044;-91.642;2024-03-23T01:15:13;8.73;;;7.80;;
82255;SDS011;74246;42.044;-91.642;2024-03-23T01:15:48;10.18;;;8.20;;
82255;SDS011;74246;42.044;-91.642;2024-03-23T01:16:20;8.70;;;7.72;;
82255;SDS011;74246;42.044;-91.642;2024-03-23T01:16:52;9.45;;;8.57;;
82255;SDS011;74246;42.044;-91.642;2024-03-23T01:17:25;10.27;;;9.27;;
82255;SDS011;74246;42.044;-91.642;2024-03-23T01:17:57;9.23;;;7.93;;
82255;SDS011;74246;42.044;-91.642;2024-03-23T01:18:29;8.55;;;7.78;;
82255;SDS011;74246;42.044;-91.642;2024-03-23T01:19:01;8.93;;;8.13;;
82255;SDS011;74246;42.044;-91.642;2024-03-23T01:19:33;8.90;;;8.00;;
82255;SDS011;74246;42.044;-91.642;2024-03-23T01:20:06;8.43;;;7.63;;
82255;SDS011;74246;42.044;-91.642;2024-03-23T01:20:38;8.57;;;7.72;;
82255;SDS011;74246;42.044;-91.642;2024-03-23T01:21:11;8.75;;;7.95;;
82255;SDS011;74246;42.044;-91.642;2024-03-23T01:21:42;8.93;;;7.88;;
82255;SDS011;74246;42.044;-91.642;2024-03-23T01:22:14;8.43;;;7.50;;
82255;SDS011;74246;42.044;-91.642;2024-03-23T01:22:46;10.55;;;9.45;;
82255;SDS011;74246;42.044;-91.642;2024-03-23T01:23:18;9.18;;;8.35;;
82255;SDS011;74246;42.044;-91.642;2024-03-23T01:23:51;8.38;;;7.57;;
82255;SDS011;74246;42.044;-91.642;2024-03-23T01:24:23;7.85;;;7.05;;
82255;SDS011;74246;42.044;-91.642;2024-03-23T01:24:55;9.48;;;8.57;;
82255;SDS011;74246;42.044;-91.642;2024-03-23T01:25:27;8.75;;;7.93;;
82255;SDS011;74246;42.044;-91.642;2024-03-23T01:25:59;8.77;;;7.88;;
82255;SDS011;74246;42.044;-91.642;2024-03-23T01:26:31;10.00;;;9.15;;
82255;SDS011;74246;42.044;-91.642;2024-03-23T01:27:03;8.23;;;7.38;;
82255;SDS011;74246;42.044;-91.642;2024-03-23T01:27:35;8.75;;;7.90;;
82255;SDS011;74246;42.044;-91.642;2024-03-23T01:28:07;8.98;;;8.07;;
82255;SDS011;74246;42.044;-91.642;2024-03-23T01:28:39;8.45;;;7.65;;
82255;SDS011;74246;42.044;-91.642;2024-03-23T01:29:11;8.55;;;7.75;;
82255;SDS011;74246;42.044;-91.642;2024-03-23T01:29:43;8.93;;;8.13;;
82255;SDS011;74246;42.044;-91.642;2024-03-23T01:30:15;8.05;;;7.25;;
82255;SDS011;74246;42.044;-91.642;2024-03-23T01:30:48;8.30;;;7.47;;
82255;SDS011;74246;42.044;-91.642;2024-03-23T01:31:19;8.50;;;7.60;;
82255;SDS011;74246;42.044;-91.642;2024-03-23T01:31:51;8.60;;;7.80;;
82255;SDS011;74246;42.044;-91.642;2024-03-23T01:32:23;8.75;;;7.85;;
82255;SDS011;74246;42.044;-91.642;2024-03-23T01:32:55;8.50;;;7.60;;
82255;SDS011;74246;42.044;-91.642;2024-03-23T01:33:27;8.02;;;7.22;;
82255;SDS011;74246;42.044;-91.642;2024-03-23T01:33:59;8.10;;;7.30;;
82255;SDS011;74246;42.044;-91.642;2024-03-23T01:34:31;7.97;;;6.97;;
82255;SDS011;74246;42.044;-91.642;2024-03-23T01:35:03;8.40;;;7.43;;
82255;SDS011;74246;42.044;-91.642;2024-03-23T01:35:35;7.90;;;7.10;;
82255;SDS011;74246;42.044;-91.642;2024-03-23T01:36:07;8.52;;;7.47;;
82255;SDS011;74246;42.044;-91.642;2024-03-23T01:36:39;8.18;;;7.47;;
82255;SDS011;74246;42.044;-91.642;2024-03-23T01:37:11;8.63;;;7.60;;
82255;SDS011;74246;42.044;-91.642;2024-03-23T01:37:43;8.50;;;7.70;;
82255;SDS011;74246;42.044;-91.642;2024-03-23T01:38:15;8.88;;;8.05;;
82255;SDS011;74246;42.044;-91.642;2024-03-23T01:38:47;8.68;;;7.82;;
82255;SDS011;74246;42.044;-91.642;2024-03-23T01:39:19;8.75;;;7.93;;
82255;SDS011;74246;42.044;-91.642;2024-03-23T01:39:52;9.05;;;8.25;;
82255;SDS011;74246;42.044;-91.642;2024-03-23T01:40:24;8.55;;;7.68;;
82255;SDS011;74246;42.044;-91.642;2024-03-23T01:40:58;8.95;;;7.20;;
82255;SDS011;74246;42.044;-91.642;2024-03-23T01:41:30;8.25;;;7.45;;
82255;SDS011;74246;42.044;-91.642;2024-03-23T01:42:02;8.13;;;7.32;;
82255;SDS011;74246;42.044;-91.642;2024-03-23T01:42:35;8.38;;;7.47;;
82255;SDS011;74246;42.044;-91.642;2024-03-23T01:43:07;7.80;;;7.10;;
82255;SDS011;74246;42.044;-91.642;2024-03-23T01:43:39;7.93;;;7.13;;
82255;SDS011;74246;42.044;-91.642;2024-03-23T01:44:12;8.05;;;7.25;;
82255;SDS011;74246;42.044;-91.642;2024-03-23T01:44:44;8.73;;;7.50;;
82255;SDS011;74246;42.044;-91.642;2024-03-23T01:45:16;7.93;;;7.13;;
82255;SDS011;74246;42.044;-91.642;2024-03-23T01:45:48;8.27;;;7.47;;
82255;SDS011;74246;42.044;-91.642;2024-03-23T01:46:20;8.40;;;7.55;;
82255;SDS011;74246;42.044;-91.642;2024-03-23T01:46:52;8.80;;;7.90;;
82255;SDS011;74246;42.044;-91.642;2024-03-23T01:47:24;8.52;;;7.60;;
82255;SDS011;74246;42.044;-91.642;2024-03-23T01:47:56;8.35;;;7.55;;
82255;SDS011;74246;42.044;-91.642;2024-03-23T01:48:28;8.93;;;8.02;;
82255;SDS011;74246;42.044;-91.642;2024-03-23T01:49:00;7.82;;;7.03;;
82255;SDS011;74246;42.044;-91.642;2024-03-23T01:49:32;9.23;;;8.10;;
82255;SDS011;74246;42.044;-91.642;2024-03-23T01:50:06;8.10;;;7.30;;
82255;SDS011;74246;42.044;-91.642;2024-03-23T01:50:38;9.15;;;8.25;;
82255;SDS011;74246;42.044;-91.642;2024-03-23T01:51:11;8.80;;;7.93;;
82255;SDS011;74246;42.044;-91.642;2024-03-23T01:51:43;8.07;;;7.28;;
82255;SDS011;74246;42.044;-91.642;2024-03-23T01:52:48;7.85;;;7.10;;
82255;SDS011;74246;42.044;-91.642;2024-03-23T01:53:21;7.95;;;7.15;;
82255;SDS011;74246;42.044;-91.642;2024-03-23T01:53:54;7.72;;;6.93;;
82255;SDS011;74246;42.044;-91.642;2024-03-23T01:54:27;8.05;;;7.25;;
82255;SDS011;74246;42.044;-91.642;2024-03-23T01:55:01;9.13;;;6.93;;
82255;SDS011;74246;42.044;-91.642;2024-03-23T01:55:33;7.90;;;6.70;;
82255;SDS011;74246;42.044;-91.642;2024-03-23T01:56:05;7.57;;;6.78;;
82255;SDS011;74246;42.044;-91.642;2024-03-23T01:56:37;7.82;;;7.03;;
82255;SDS011;74246;42.044;-91.642;2024-03-23T01:57:09;7.32;;;6.63;;
82255;SDS011;74246;42.044;-91.642;2024-03-23T01:57:42;7.65;;;6.25;;
82255;SDS011;74246;42.044;-91.642;2024-03-23T01:58:14;8.98;;;8.18;;
82255;SDS011;74246;42.044;-91.642;2024-03-23T01:58:46;7.43;;;6.72;;
82255;SDS011;74246;42.044;-91.642;2024-03-23T01:59:18;8.13;;;7.32;;
82255;SDS011;74246;42.044;-91.642;2024-03-23T01:59:51;7.72;;;7.03;;
82255;SDS011;74246;42.044;-91.642;2024-03-23T02:00:23;8.48;;;7.57;;
82255;SDS011;74246;42.044;-91.642;2024-03-23T02:00:55;7.57;;;6.88;;
82255;SDS011;74246;42.044;-91.642;2024-03-23T02:01:29;7.55;;;6.75;;
82255;SDS011;74246;42.044;-91.642;2024-03-23T02:02:01;9.13;;;8.32;;
82255;SDS011;74246;42.044;-91.642;2024-03-23T02:02:33;7.65;;;6.85;;
82255;SDS011;74246;42.044;-91.642;2024-03-23T02:03:29;7.05;;;6.32;;
82255;SDS011;74246;42.044;-91.642;2024-03-23T02:03:59;7.45;;;6.75;;
82255;SDS011;74246;42.044;-91.642;2024-03-23T02:04:31;7.10;;;6.40;;
82255;SDS011;74246;42.044;-91.642;2024-03-23T02:05:02;7.82;;;6.55;;
82255;SDS011;74246;42.044;-91.642;2024-03-23T02:05:34;8.80;;;7.03;;
82255;SDS011;74246;42.044;-91.642;2024-03-23T02:06:06;7.65;;;6.90;;
82255;SDS011;74246;42.044;-91.642;2024-03-23T02:06:40;7.13;;;6.32;;
82255;SDS011;74246;42.044;-91.642;2024-03-23T02:07:12;8.32;;;6.90;;
82255;SDS011;74246;42.044;-91.642;2024-03-23T02:07:44;7.57;;;6.38;;
82255;SDS011;74246;42.044;-91.642;2024-03-23T02:09:11;7.60;;;6.80;;
82255;SDS011;74246;42.044;-91.642;2024-03-23T02:09:45;8.20;;;6.85;;
82255;SDS011;74246;42.044;-91.642;2024-03-23T02:10:17;8.30;;;7.38;;
82255;SDS011;74246;42.044;-91.642;2024-03-23T02:10:49;8.32;;;7.40;;
82255;SDS011;74246;42.044;-91.642;2024-03-23T02:11:22;7.97;;;6.78;;
82255;SDS011;74246;42.044;-91.642;2024-03-23T02:11:54;8.77;;;7.20;;
82255;SDS011;74246;42.044;-91.642;2024-03-23T02:12:29;7.70;;;6.88;;
82255;SDS011;74246;42.044;-91.642;2024-03-23T02:13:01;7.35;;;6.45;;
82255;SDS011;74246;42.044;-91.642;2024-03-23T02:13:33;7.95;;;6.63;;
82255;SDS011;74246;42.044;-91.642;2024-03-23T02:14:05;8.60;;;7.70;;
82255;SDS011;74246;42.044;-91.642;2024-03-23T02:14:37;8.88;;;7.97;;
82255;SDS011;74246;42.044;-91.642;2024-03-23T02:15:09;8.05;;;7.25;;
82255;SDS011;74246;42.044;-91.642;2024-03-23T02:15:41;7.55;;;6.85;;
82255;SDS011;74246;42.044;-91.642;2024-03-23T02:16:13;8.35;;;7.55;;
82255;SDS011;74246;42.044;-91.642;2024-03-23T02:16:45;8.63;;;7.82;;
82255;SDS011;74246;42.044;-91.642;2024-03-23T02:17:18;8.18;;;7.47;;
82255;SDS011;74246;42.044;-91.642;2024-03-23T02:17:50;8.00;;;7.20;;
82255;SDS011;74246;42.044;-91.642;2024-03-23T02:18:22;7.80;;;7.07;;
82255;SDS011;74246;42.044;-91.642;2024-03-23T02:18:54;7.57;;;6.88;;
82255;SDS011;74246;42.044;-91.642;2024-03-23T02:19:25;8.98;;;7.20;;
82255;SDS011;74246;42.044;-91.642;2024-03-23T02:19:58;8.07;;;7.38;;
82255;SDS011;74246;42.044;-91.642;2024-03-23T02:20:29;7.85;;;7.10;;
82255;SDS011;74246;42.044;-91.642;2024-03-23T02:21:02;8.80;;;7.90;;
82255;SDS011;74246;42.044;-91.642;2024-03-23T02:21:34;7.60;;;6.90;;
82255;SDS011;74246;42.044;-91.642;2024-03-23T02:22:06;8.02;;;7.15;;
82255;SDS011;74246;42.044;-91.642;2024-03-23T02:22:38;8.07;;;7.30;;
82255;SDS011;74246;42.044;-91.642;2024-03-23T02:23:14;7.78;;;7.05;;
82255;SDS011;74246;42.044;-91.642;2024-03-23T02:23:47;8.63;;;6.88;;
82255;SDS011;74246;42.044;-91.642;2024-03-23T02:24:20;7.10;;;6.38;;
82255;SDS011;74246;42.044;-91.642;2024-03-23T02:24:52;7.05;;;6.38;;
82255;SDS011;74246;42.044;-91.642;2024-03-23T02:25:24;8.20;;;7.03;;
82255;SDS011;74246;42.044;-91.642;2024-03-23T02:25:56;8.18;;;7.38;;
82255;SDS011;74246;42.044;-91.642;2024-03-23T02:26:28;8.35;;;7.55;;
82255;SDS011;74246;42.044;-91.642;2024-03-23T02:26:59;7.68;;;6.95;;
82255;SDS011;74246;42.044;-91.642;2024-03-23T02:27:32;8.20;;;7.05;;
82255;SDS011;74246;42.044;-91.642;2024-03-23T02:28:06;7.68;;;6.88;;
82255;SDS011;74246;42.044;-91.642;2024-03-23T02:28:38;7.32;;;6.63;;
82255;SDS011;74246;42.044;-91.642;2024-03-23T02:29:10;8.18;;;7.38;;
82255;SDS011;74246;42.044;-91.642;2024-03-23T02:29:42;7.65;;;6.90;;
82255;SDS011;74246;42.044;-91.642;2024-03-23T02:30:14;7.82;;;6.93;;
82255;SDS011;74246;42.044;-91.642;2024-03-23T02:30:46;7.28;;;6.53;;
82255;SDS011;74246;42.044;-91.642;2024-03-23T02:31:18;9.05;;;6.93;;
82255;SDS011;74246;42.044;-91.642;2024-03-23T02:31:50;8.55;;;7.75;;
82255;SDS011;74246;42.044;-91.642;2024-03-23T02:32:22;8.05;;;7.25;;
82255;SDS011;74246;42.044;-91.642;2024-03-23T02:32:54;10.23;;;7.57;;
82255;SDS011;74246;42.044;-91.642;2024-03-23T02:33:26;8.13;;;7.32;;
82255;SDS011;74246;42.044;-91.642;2024-03-23T02:33:58;8.10;;;7.07;;
82255;SDS011;74246;42.044;-91.642;2024-03-23T02:34:30;7.40;;;6.65;;
82255;SDS011;74246;42.044;-91.642;2024-03-23T02:35:02;7.80;;;7.10;;
82255;SDS011;74246;42.044;-91.642;2024-03-23T02:35:34;7.78;;;6.97;;
82255;SDS011;74246;42.044;-91.642;2024-03-23T02:36:06;7.82;;;7.05;;
82255;SDS011;74246;42.044;-91.642;2024-03-23T02:36:38;7.65;;;6.95;;
82255;SDS011;74246;42.044;-91.642;2024-03-23T02:37:11;7.90;;;7.10;;
82255;SDS011;74246;42.044;-91.642;2024-03-23T02:37:43;7.70;;;6.90;;
82255;SDS011;74246;42.044;-91.642;2024-03-23T02:38:17;8.23;;;7.32;;
82255;SDS011;74246;42.044;-91.642;2024-03-23T02:38:49;7.43;;;6.57;;
82255;SDS011;74246;42.044;-91.642;2024-03-23T02:39:21;7.45;;;6.75;;
82255;SDS011;74246;42.044;-91.642;2024-03-23T02:39:53;8.23;;;7.20;;
82255;SDS011;74246;42.044;-91.642;2024-03-23T02:40:25;7.65;;;6.85;;
82255;SDS011;74246;42.044;-91.642;2024-03-23T02:41:01;7.80;;;7.00;;
82255;SDS011;74246;42.044;-91.642;2024-03-23T02:41:37;8.30;;;7.25;;
82255;SDS011;74246;42.044;-91.642;2024-03-23T02:42:09;7.10;;;6.40;;
82255;SDS011;74246;42.044;-91.642;2024-03-23T02:42:41;8.18;;;7.47;;
82255;SDS011;74246;42.044;-91.642;2024-03-23T02:43:13;7.68;;;6.97;;
82255;SDS011;74246;42.044;-91.642;2024-03-23T02:43:45;8.00;;;7.30;;
82255;SDS011;74246;42.044;-91.642;2024-03-23T02:44:19;8.27;;;7.18;;
82255;SDS011;74246;42.044;-91.642;2024-03-23T02:44:51;10.07;;;7.18;;
82255;SDS011;74246;42.044;-91.642;2024-03-23T02:45:23;7.93;;;7.10;;
82255;SDS011;74246;42.044;-91.642;2024-03-23T02:45:55;8.13;;;7.00;;
82255;SDS011;74246;42.044;-91.642;2024-03-23T02:46:27;7.40;;;6.70;;
82255;SDS011;74246;42.044;-91.642;2024-03-23T02:46:59;8.20;;;7.40;;
82255;SDS011;74246;42.044;-91.642;2024-03-23T02:47:31;8.02;;;7.22;;
82255;SDS011;74246;42.044;-91.642;2024-03-23T02:48:03;7.60;;;6.80;;
82255;SDS011;74246;42.044;-91.642;2024-03-23T02:48:35;8.07;;;7.28;;
82255;SDS011;74246;42.044;-91.642;2024-03-23T02:49:07;7.43;;;6.72;;
82255;SDS011;74246;42.044;-91.642;2024-03-23T02:49:39;7.18;;;6.47;;
82255;SDS011;74246;42.044;-91.642;2024-03-23T02:50:11;7.22;;;6.53;;
82255;SDS011;74246;42.044;-91.642;2024-03-23T02:50:43;8.75;;;7.95;;
82255;SDS011;74246;42.044;-91.642;2024-03-23T02:51:15;7.93;;;7.00;;
82255;SDS011;74246;42.044;-91.642;2024-03-23T02:51:47;7.75;;;7.05;;
82255;SDS011;74246;42.044;-91.642;2024-03-23T02:52:22;8.68;;;6.97;;
82255;SDS011;74246;42.044;-91.642;2024-03-23T02:52:54;7.80;;;7.05;;
82255;SDS011;74246;42.044;-91.642;2024-03-23T02:53:26;8.55;;;7.10;;
82255;SDS011;74246;42.044;-91.642;2024-03-23T02:53:58;8.60;;;7.68;;
82255;SDS011;74246;42.044;-91.642;2024-03-23T02:54:30;8.27;;;7.57;;
82255;SDS011;74246;42.044;-91.642;2024-03-23T02:55:02;8.10;;;7.30;;
82255;SDS011;74246;42.044;-91.642;2024-03-23T02:55:35;7.97;;;6.82;;
82255;SDS011;74246;42.044;-91.642;2024-03-23T02:56:07;7.95;;;7.25;;
82255;SDS011;74246;42.044;-91.642;2024-03-23T02:56:39;8.93;;;8.13;;
82255;SDS011;74246;42.044;-91.642;2024-03-23T02:57:11;7.97;;;7.18;;
82255;SDS011;74246;42.044;-91.642;2024-03-23T02:57:43;8.00;;;7.15;;
82255;SDS011;74246;42.044;-91.642;2024-03-23T02:58:15;7.78;;;6.97;;
82255;SDS011;74246;42.044;-91.642;2024-03-23T02:58:47;8.02;;;7.30;;
82255;SDS011;74246;42.044;-91.642;2024-03-23T02:59:19;7.90;;;7.00;;
82255;SDS011;74246;42.044;-91.642;2024-03-23T02:59:51;13.05;;;7.53;;
82255;SDS011;74246;42.044;-91.642;2024-03-23T03:00:23;16.23;;;8.75;;
82255;SDS011;74246;42.044;-91.642;2024-03-23T03:00:55;23.15;;;9.27;;
82255;SDS011;74246;42.044;-91.642;2024-03-23T03:01:27;21.77;;;9.43;;
82255;SDS011;74246;42.044;-91.642;2024-03-23T03:01:59;12.90;;;8.65;;
82255;SDS011;74246;42.044;-91.642;2024-03-23T03:02:32;13.60;;;7.63;;
82255;SDS011;74246;42.044;-91.642;2024-03-23T03:03:04;10.75;;;8.02;;
82255;SDS011;74246;42.044;-91.642;2024-03-23T03:03:36;10.07;;;8.48;;
82255;SDS011;74246;42.044;-91.642;2024-03-23T03:04:08;9.25;;;7.22;;
82255;SDS011;74246;42.044;-91.642;2024-03-23T03:04:40;7.82;;;7.03;;
82255;SDS011;74246;42.044;-91.642;2024-03-23T03:05:15;7.70;;;7.00;;
82255;SDS011;74246;42.044;-91.642;2024-03-23T03:05:47;7.53;;;6.82;;
82255;SDS011;74246;42.044;-91.642;2024-03-23T03:06:25;7.88;;;7.07;;
82255;SDS011;74246;42.044;-91.642;2024-03-23T03:06:58;7.93;;;7.22;;
82255;SDS011;74246;42.044;-91.642;2024-03-23T03:07:30;9.02;;;8.20;;
82255;SDS011;74246;42.044;-91.642;2024-03-23T03:08:03;6.88;;;6.18;;
82255;SDS011;74246;42.044;-91.642;2024-03-23T03:08:35;8.13;;;7.32;;
82255;SDS011;74246;42.044;-91.642;2024-03-23T03:09:07;8.15;;;7.30;;
82255;SDS011;74246;42.044;-91.642;2024-03-23T03:09:39;8.07;;;7.38;;
82255;SDS011;74246;42.044;-91.642;2024-03-23T03:10:11;8.02;;;7.22;;
82255;SDS011;74246;42.044;-91.642;2024-03-23T03:10:43;8.05;;;7.30;;
82255;SDS011;74246;42.044;-91.642;2024-03-23T03:11:15;7.70;;;6.78;;
82255;SDS011;74246;42.044;-91.642;2024-03-23T03:11:47;7.75;;;7.05;;
82255;SDS011;74246;42.044;-91.642;2024-03-23T03:12:19;7.88;;;7.07;;
82255;SDS011;74246;42.044;-91.642;2024-03-23T03:12:51;8.93;;;8.02;;
82255;SDS011;74246;42.044;-91.642;2024-03-23T03:13:23;9.90;;;9.00;;
82255;SDS011;74246;42.044;-91.642;2024-03-23T03:13:54;8.50;;;7.70;;
82255;SDS011;74246;42.044;-91.642;2024-03-23T03:14:26;8.60;;;7.80;;
82255;SDS011;74246;42.044;-91.642;2024-03-23T03:14:59;8.07;;;7.28;;
82255;SDS011;74246;42.044;-91.642;2024-03-23T03:15:31;8.30;;;7.50;;
82255;SDS011;74246;42.044;-91.642;2024-03-23T03:16:03;8.43;;;7.53;;
82255;SDS011;74246;42.044;-91.642;2024-03-23T03:16:41;6.97;;;6.32;;
82255;SDS011;74246;42.044;-91.642;2024-03-23T03:17:13;8.48;;;7.55;;
82255;SDS011;74246;42.044;-91.642;2024-03-23T03:18:20;8.55;;;7.75;;
82255;SDS011;74246;42.044;-91.642;2024-03-23T03:18:52;8.13;;;7.43;;
82255;SDS011;74246;42.044;-91.642;2024-03-23T03:19:24;9.07;;;8.27;;
82255;SDS011;74246;42.044;-91.642;2024-03-23T03:19:56;7.97;;;7.18;;
82255;SDS011;74246;42.044;-91.642;2024-03-23T03:20:28;8.52;;;7.78;;
82255;SDS011;74246;42.044;-91.642;2024-03-23T03:21:00;7.75;;;6.97;;
82255;SDS011;74246;42.044;-91.642;2024-03-23T03:21:32;8.50;;;7.65;;
82255;SDS011;74246;42.044;-91.642;2024-03-23T03:22:04;7.50;;;6.85;;
82255;SDS011;74246;42.044;-91.642;2024-03-23T03:22:36;8.80;;;7.78;;
82255;SDS011;74246;42.044;-91.642;2024-03-23T03:23:08;8.45;;;7.75;;
82255;SDS011;74246;42.044;-91.642;2024-03-23T03:23:41;7.85;;;7.15;;
82255;SDS011;74246;42.044;-91.642;2024-03-23T03:24:14;8.48;;;7.70;;
82255;SDS011;74246;42.044;-91.642;2024-03-23T03:24:49;9.68;;;8.85;;
82255;SDS011;74246;42.044;-91.642;2024-03-23T03:25:20;8.13;;;7.32;;
82255;SDS011;74246;42.044;-91.642;2024-03-23T03:25:52;8.10;;;7.20;;
82255;SDS011;74246;42.044;-91.642;2024-03-23T03:26:24;7.75;;;7.05;;
82255;SDS011;74246;42.044;-91.642;2024-03-23T03:26:56;7.88;;;7.18;;
82255;SDS011;74246;42.044;-91.642;2024-03-23T03:27:31;7.43;;;6.72;;
82255;SDS011;74246;42.044;-91.642;2024-03-23T03:28:03;11.00;;;10.10;;
82255;SDS011;74246;42.044;-91.642;2024-03-23T03:28:36;7.95;;;7.25;;
82255;SDS011;74246;42.044;-91.642;2024-03-23T03:29:08;9.82;;;9.02;;
82255;SDS011;74246;42.044;-91.642;2024-03-23T03:29:40;7.95;;;7.25;;
82255;SDS011;74246;42.044;-91.642;2024-03-23T03:30:12;7.63;;;6.93;;
82255;SDS011;74246;42.044;-91.642;2024-03-23T03:30:44;8.32;;;7.53;;
82255;SDS011;74246;42.044;-91.642;2024-03-23T03:31:17;10.45;;;9.55;;
82255;SDS011;74246;42.044;-91.642;2024-03-23T03:31:49;7.60;;;6.75;;
82255;SDS011;74246;42.044;-91.642;2024-03-23T03:32:22;7.63;;;6.93;;
82255;SDS011;74246;42.044;-91.642;2024-03-23T03:32:54;8.23;;;7.53;;
82255;SDS011;74246;42.044;-91.642;2024-03-23T03:33:26;7.90;;;7.15;;
82255;SDS011;74246;42.044;-91.642;2024-03-23T03:33:59;7.97;;;7.18;;
82255;SDS011;74246;42.044;-91.642;2024-03-23T03:34:31;8.40;;;7.60;;
82255;SDS011;74246;42.044;-91.642;2024-03-23T03:35:03;8.00;;;7.20;;
82255;SDS011;74246;42.044;-91.642;2024-03-23T03:35:35;8.77;;;7.97;;
82255;SDS011;74246;42.044;-91.642;2024-03-23T03:36:08;8.57;;;7.75;;
82255;SDS011;74246;42.044;-91.642;2024-03-23T03:36:41;8.73;;;7.93;;
82255;SDS011;74246;42.044;-91.642;2024-03-23T03:37:13;7.07;;;6.32;;
82255;SDS011;74246;42.044;-91.642;2024-03-23T03:37:45;7.85;;;7.10;;
82255;SDS011;74246;42.044;-91.642;2024-03-23T03:38:20;8.27;;;7.57;;
82255;SDS011;74246;42.044;-91.642;2024-03-23T03:38:52;7.68;;;6.97;;
82255;SDS011;74246;42.044;-91.642;2024-03-23T03:39:24;7.70;;;7.00;;
82255;SDS011;74246;42.044;-91.642;2024-03-23T03:39:56;7.93;;;7.20;;
82255;SDS011;74246;42.044;-91.642;2024-03-23T03:40:28;7.95;;;7.15;;
82255;SDS011;74246;42.044;-91.642;2024-03-23T03:41:03;10.27;;;9.38;;
82255;SDS011;74246;42.044;-91.642;2024-03-23T03:41:35;9.38;;;8.32;;
82255;SDS011;74246;42.044;-91.642;2024-03-23T03:42:07;8.57;;;7.78;;
82255;SDS011;74246;42.044;-91.642;2024-03-23T03:42:39;8.02;;;7.22;;
82255;SDS011;74246;42.044;-91.642;2024-03-23T03:43:11;7.72;;;7.03;;
82255;SDS011;74246;42.044;-91.642;2024-03-23T03:43:43;7.88;;;7.18;;
82255;SDS011;74246;42.044;-91.642;2024-03-23T03:44:16;9.18;;;8.38;;
82255;SDS011;74246;42.044;-91.642;2024-03-23T03:44:48;7.50;;;6.80;;
82255;SDS011;74246;42.044;-91.642;2024-03-23T03:45:20;7.70;;;6.95;;
82255;SDS011;74246;42.044;-91.642;2024-03-23T03:45:56;7.68;;;6.68;;
82255;SDS011;74246;42.044;-91.642;2024-03-23T03:46:28;8.18;;;6.95;;
82255;SDS011;74246;42.044;-91.642;2024-03-23T03:47:00;7.50;;;6.80;;
82255;SDS011;74246;42.044;-91.642;2024-03-23T03:47:32;7.65;;;6.95;;
82255;SDS011;74246;42.044;-91.642;2024-03-23T03:48:04;7.88;;;6.68;;
82255;SDS011;74246;42.044;-91.642;2024-03-23T03:48:37;8.23;;;7.40;;
82255;SDS011;74246;42.044;-91.642;2024-03-23T03:49:09;8.77;;;7.97;;
82255;SDS011;74246;42.044;-91.642;2024-03-23T03:50:13;7.85;;;7.15;;
82255;SDS011;74246;42.044;-91.642;2024-03-23T03:50:45;8.32;;;7.53;;
82255;SDS011;74246;42.044;-91.642;2024-03-23T03:51:17;9.90;;;9.10;;
82255;SDS011;74246;42.044;-91.642;2024-03-23T03:51:49;7.03;;;6.40;;
82255;SDS011;74246;42.044;-91.642;2024-03-23T03:52:21;7.65;;;6.95;;
82255;SDS011;74246;42.044;-91.642;2024-03-23T03:52:53;9.13;;;7.47;;
82255;SDS011;74246;42.044;-91.642;2024-03-23T03:53:25;8.40;;;7.63;;
82255;SDS011;74246;42.044;-91.642;2024-03-23T03:53:57;7.68;;;6.88;;
82255;SDS011;74246;42.044;-91.642;2024-03-23T03:54:29;7.80;;;7.10;;
82255;SDS011;74246;42.044;-91.642;2024-03-23T03:55:01;8.85;;;8.07;;
82255;SDS011;74246;42.044;-91.642;2024-03-23T03:55:34;8.88;;;8.07;;
82255;SDS011;74246;42.044;-91.642;2024-03-23T03:56:06;7.68;;;6.97;;
82255;SDS011;74246;42.044;-91.642;2024-03-23T03:56:38;7.43;;;6.72;;
82255;SDS011;74246;42.044;-91.642;2024-03-23T03:57:10;7.82;;;7.03;;
82255;SDS011;74246;42.044;-91.642;2024-03-23T03:57:42;8.13;;;7.32;;
82255;SDS011;74246;42.044;-91.642;2024-03-23T03:58:14;7.93;;;7.13;;
82255;SDS011;74246;42.044;-91.642;2024-03-23T03:58:45;7.32;;;6.63;;
82255;SDS011;74246;42.044;-91.642;2024-03-23T03:59:17;7.80;;;7.10;;
82255;SDS011;74246;42.044;-91.642;2024-03-23T03:59:50;7.97;;;7.28;;
82255;SDS011;74246;42.044;-91.642;2024-03-23T04:00:22;7.60;;;6.90;;
82255;SDS011;74246;42.044;-91.642;2024-03-23T04:00:54;8.43;;;7.63;;
82255;SDS011;74246;42.044;-91.642;2024-03-23T04:01:26;7.60;;;6.90;;
82255;SDS011;74246;42.044;-91.642;2024-03-23T04:01:58;7.93;;;7.22;;
82255;SDS011;74246;42.044;-91.642;2024-03-23T04:02:30;7.97;;;7.28;;
82255;SDS011;74246;42.044;-91.642;2024-03-23T04:03:02;8.40;;;7.60;;
82255;SDS011;74246;42.044;-91.642;2024-03-23T04:03:34;7.72;;;7.03;;
82255;SDS011;74246;42.044;-91.642;2024-03-23T04:04:06;8.20;;;7.40;;
82255;SDS011;74246;42.044;-91.642;2024-03-23T04:04:38;8.57;;;7.78;;
82255;SDS011;74246;42.044;-91.642;2024-03-23T04:05:10;7.82;;;7.13;;